createdAt,value
2019-01-30T00:01:56.657Z,96396.31
2019-01-30T00:03:58.249Z,96396.67
2019-01-30T00:05:59.847Z,96397.95
2019-01-30T00:08:01.434Z,96395.09
2019-01-30T00:10:03.029Z,96393.52
2019-01-30T00:12:04.621Z,96392.39
2019-01-30T00:14:06.214Z,96394.63
2019-01-30T00:16:07.844Z,96384.05
2019-01-30T00:18:09.427Z,96391.20
2019-01-30T00:20:11.059Z,96389.81
2019-01-30T00:22:12.684Z,96388.73
2019-01-30T00:24:14.278Z,96383.16
2019-01-30T00:26:15.869Z,96376.83
2019-01-30T00:28:17.471Z,96381.97
2019-01-30T00:30:19.065Z,96379.95
2019-01-30T00:32:20.672Z,96380.36
2019-01-30T00:34:22.309Z,96377.00
2019-01-30T00:36:23.901Z,96377.52
2019-01-30T00:38:25.503Z,96379.29
2019-01-30T00:40:27.098Z,96376.83
2019-01-30T00:42:28.697Z,96374.72
2019-01-30T00:44:30.304Z,96365.39
2019-01-30T00:46:31.938Z,96372.25
2019-01-30T00:48:33.540Z,96360.70
2019-01-30T00:50:35.133Z,96365.00
2019-01-30T00:52:36.802Z,96361.17
2019-01-30T00:54:38.419Z,96357.41
2019-01-30T00:56:40.018Z,96357.70
2019-01-30T00:58:41.613Z,96362.81
2019-01-30T01:00:43.210Z,96357.34
2019-01-30T01:02:44.820Z,96357.23
2019-01-30T01:04:46.409Z,96349.50
2019-01-30T01:06:48.044Z,96358.39
2019-01-30T01:08:49.633Z,96359.52
2019-01-30T01:10:51.215Z,96356.02
2019-01-30T01:12:52.837Z,96352.17
2019-01-30T01:14:54.437Z,96354.97
2019-01-30T01:16:56.079Z,96351.91
2019-01-30T01:18:57.692Z,96352.66
2019-01-30T01:20:59.280Z,96347.61
2019-01-30T01:23:00.878Z,96338.96
2019-01-30T01:25:02.491Z,96335.96
2019-01-30T01:27:04.085Z,96332.93
2019-01-30T01:29:05.794Z,96332.61
2019-01-30T01:31:07.400Z,96335.58
2019-01-30T01:33:09.012Z,96335.60
2019-01-30T01:35:10.638Z,96329.34
2019-01-30T01:37:12.284Z,96330.29
2019-01-30T01:39:13.895Z,96328.66
2019-01-30T01:41:15.490Z,96330.44
2019-01-30T01:43:17.089Z,96323.31
2019-01-30T01:45:18.681Z,96320.76
2019-01-30T01:47:20.287Z,96321.20
2019-01-30T01:49:21.923Z,96318.27
2019-01-30T01:51:23.524Z,96317.55
2019-01-30T01:53:25.122Z,96313.13
2019-01-30T01:55:26.717Z,96304.73
2019-01-30T01:57:28.309Z,96304.34
2019-01-30T01:59:29.915Z,96312.54
2019-01-30T02:01:31.598Z,96304.49
2019-01-30T02:03:33.193Z,96303.18
2019-01-30T02:05:34.803Z,96299.50
2019-01-30T02:07:36.438Z,96301.96
2019-01-30T02:09:38.048Z,96294.69
2019-01-30T02:11:39.652Z,96291.69
2019-01-30T02:13:41.250Z,96285.33
2019-01-30T02:15:42.842Z,96297.27
2019-01-30T02:17:44.424Z,96287.50
2019-01-30T02:19:46.046Z,96287.05
2019-01-30T02:21:47.642Z,96285.30
2019-01-30T02:23:49.237Z,96282.36
2019-01-30T02:25:50.863Z,96278.05
2019-01-30T02:27:52.461Z,96281.50
2019-01-30T02:29:54.101Z,96280.19
2019-01-30T02:31:55.713Z,96246.75
2019-01-30T02:33:57.309Z,96273.74
2019-01-30T02:35:58.958Z,96270.59
2019-01-30T02:38:00.548Z,96263.73
2019-01-30T02:40:02.144Z,96261.27
2019-01-30T02:42:03.789Z,96264.02
2019-01-30T02:44:05.393Z,96256.72
2019-01-30T02:46:06.988Z,96257.59
2019-01-30T02:48:08.594Z,96248.06
2019-01-30T02:50:10.205Z,96253.17
2019-01-30T02:52:11.852Z,96249.30
2019-01-30T02:54:13.452Z,96254.72
2019-01-30T02:56:15.065Z,96246.30
2019-01-30T02:58:16.677Z,96250.04
2019-01-30T03:00:18.299Z,96247.43
2019-01-30T03:02:19.944Z,96241.08
2019-01-30T03:04:21.573Z,96243.66
2019-01-30T03:06:23.176Z,96242.06
2019-01-30T03:08:24.835Z,96243.36
2019-01-30T03:10:26.447Z,96237.45
2019-01-30T03:12:28.041Z,96244.16
2019-01-30T03:14:29.671Z,96237.59
2019-01-30T03:16:31.265Z,96236.19
2019-01-30T03:18:32.863Z,96199.16
2019-01-30T03:20:34.492Z,96239.05
2019-01-30T03:22:36.113Z,96239.28
2019-01-30T03:24:37.705Z,96234.70
2019-01-30T03:26:39.326Z,96230.14
2019-01-30T03:28:40.936Z,96235.22
2019-01-30T03:30:42.517Z,96230.84
2019-01-30T03:32:44.129Z,96225.94
2019-01-30T03:34:45.734Z,96219.39
2019-01-30T03:36:47.404Z,96222.08
2019-01-30T03:38:49.001Z,96217.80
2019-01-30T03:40:50.607Z,96217.94
2019-01-30T03:42:52.224Z,96218.76
2019-01-30T03:44:53.818Z,96215.09
2019-01-30T03:46:55.423Z,96216.69
2019-01-30T03:48:57.008Z,96223.94
2019-01-30T03:50:58.647Z,96226.57
2019-01-30T03:53:00.237Z,96214.14
2019-01-30T03:55:01.885Z,96213.42
2019-01-30T03:57:03.485Z,96212.36
2019-01-30T03:59:05.080Z,96220.16
2019-01-30T04:01:06.674Z,96223.34
2019-01-30T04:03:08.272Z,96213.84
2019-01-30T04:05:09.879Z,96214.62
2019-01-30T04:07:11.505Z,96218.59
2019-01-30T04:09:13.158Z,96208.59
2019-01-30T04:11:14.765Z,96208.83
2019-01-30T04:13:16.380Z,96209.06
2019-01-30T04:15:18.007Z,96216.57
2019-01-30T04:17:19.602Z,96207.72
2019-01-30T04:19:21.208Z,96207.09
2019-01-30T04:21:22.812Z,96203.44
2019-01-30T04:23:24.435Z,96198.59
2019-01-30T04:25:26.044Z,96195.47
2019-01-30T04:27:27.679Z,96193.56
2019-01-30T04:29:29.283Z,96196.67
2019-01-30T04:31:37.955Z,96195.20
2019-01-30T04:33:32.525Z,96193.09
2019-01-30T04:35:34.109Z,96195.11
2019-01-30T04:37:35.716Z,96190.89
2019-01-30T04:39:37.341Z,96187.95
2019-01-30T04:41:38.951Z,96188.34
2019-01-30T04:43:40.547Z,96190.13
2019-01-30T04:45:42.160Z,96193.38
2019-01-30T04:47:43.778Z,96190.44
2019-01-30T04:49:45.405Z,96180.50
2019-01-30T04:51:47.027Z,96151.90
2019-01-30T04:53:48.950Z,96188.53
2019-01-30T04:55:50.550Z,96188.30
2019-01-30T04:57:52.183Z,96185.96
2019-01-30T04:59:53.776Z,96187.36
2019-01-30T05:01:55.406Z,96186.92
2019-01-30T05:03:57.016Z,96182.80
2019-01-30T05:05:58.616Z,96180.97
2019-01-30T05:08:00.224Z,96182.57
2019-01-30T05:10:01.827Z,96176.23
2019-01-30T05:12:03.422Z,96181.51
2019-01-30T05:14:05.043Z,96182.75
2019-01-30T05:16:06.659Z,96181.77
2019-01-30T05:18:08.263Z,96176.16
2019-01-30T05:20:09.924Z,96175.53
2019-01-30T05:22:11.529Z,96171.50
2019-01-30T05:24:13.269Z,96171.38
2019-01-30T05:26:14.831Z,96165.44
2019-01-30T05:28:16.445Z,96169.84
2019-01-30T05:30:18.037Z,96167.11
2019-01-30T05:32:19.682Z,96173.08
2019-01-30T05:34:21.289Z,96164.81
2019-01-30T05:36:22.885Z,96159.17
2019-01-30T05:38:24.492Z,96158.53
2019-01-30T05:40:26.089Z,96155.66
2019-01-30T05:42:27.685Z,96153.48
2019-01-30T05:44:29.298Z,96155.12
2019-01-30T05:46:30.935Z,96135.28
2019-01-30T05:48:32.520Z,96140.01
2019-01-30T05:50:34.115Z,96142.28
2019-01-30T05:52:35.757Z,96144.83
2019-01-30T05:54:37.368Z,96137.81
2019-01-30T05:56:38.965Z,96129.95
2019-01-30T05:58:40.568Z,96138.34
2019-01-30T06:00:42.186Z,96131.33
2019-01-30T06:02:43.844Z,96130.91
2019-01-30T06:04:45.445Z,96129.05
2019-01-30T06:06:47.043Z,96130.29
2019-01-30T06:08:48.641Z,96128.25
2019-01-30T06:10:50.232Z,96135.59
2019-01-30T06:12:51.829Z,96137.36
2019-01-30T06:14:53.471Z,96137.20
2019-01-30T06:16:55.069Z,96138.31
2019-01-30T06:18:56.652Z,96132.00
2019-01-30T06:20:58.260Z,96136.08
2019-01-30T06:23:01.831Z,96134.33
2019-01-30T06:25:01.521Z,96132.95
2019-01-30T06:27:03.128Z,96126.44
2019-01-30T06:29:04.723Z,96129.24
2019-01-30T06:31:06.355Z,96137.59
2019-01-30T06:33:07.971Z,96132.41
2019-01-30T06:35:09.884Z,96134.67
2019-01-30T06:37:11.478Z,96137.00
2019-01-30T06:39:13.073Z,96139.89
2019-01-30T06:41:14.679Z,96135.03
2019-01-30T06:43:16.317Z,96137.77
2019-01-30T06:45:17.923Z,96138.02
2019-01-30T06:47:19.517Z,96137.72
2019-01-30T06:49:21.155Z,96138.76
2019-01-30T06:51:22.791Z,96130.04
2019-01-30T06:53:24.397Z,96130.19
2019-01-30T06:55:26.036Z,96120.05
2019-01-30T06:57:27.651Z,96129.89
2019-01-30T06:59:29.246Z,96130.10
2019-01-30T07:01:30.841Z,96127.43
2019-01-30T07:03:32.476Z,96129.20
2019-01-30T07:05:34.069Z,96128.30
2019-01-30T07:07:36.263Z,96120.59
2019-01-30T07:09:38.007Z,96116.75
2019-01-30T07:11:39.602Z,96116.22
2019-01-30T07:13:41.183Z,96115.39
2019-01-30T07:15:42.768Z,96121.78
2019-01-30T07:17:44.409Z,96116.83
2019-01-30T07:19:46.023Z,96111.16
2019-01-30T07:21:47.619Z,96116.64
2019-01-30T07:23:49.744Z,96117.77
2019-01-30T07:25:51.351Z,96114.63
2019-01-30T07:27:52.946Z,96115.36
2019-01-30T07:29:54.566Z,96117.85
2019-01-30T07:31:56.162Z,96115.23
2019-01-30T07:33:57.767Z,96121.20
2019-01-30T07:35:59.404Z,96119.13
2019-01-30T07:38:01.030Z,96117.50
2019-01-30T07:40:02.637Z,96118.05
2019-01-30T07:42:04.277Z,96112.23
2019-01-30T07:44:05.870Z,96113.19
2019-01-30T07:46:07.461Z,96115.75
2019-01-30T07:48:09.053Z,96105.34
2019-01-30T07:50:10.654Z,96109.11
2019-01-30T07:52:12.282Z,96107.70
2019-01-30T07:54:13.875Z,96107.91
2019-01-30T07:56:15.459Z,96105.55
2019-01-30T07:58:17.043Z,96107.78
2019-01-30T08:00:18.642Z,96116.17
2019-01-30T08:02:21.944Z,96111.22
2019-01-30T08:04:21.906Z,96110.55
2019-01-30T08:06:23.512Z,96120.08
2019-01-30T08:08:25.136Z,96117.23
2019-01-30T08:10:26.734Z,96118.19
2019-01-30T08:12:28.373Z,96123.88
2019-01-30T08:14:29.970Z,96118.64
2019-01-30T08:16:31.567Z,96118.58
2019-01-30T08:18:33.169Z,96116.45
2019-01-30T08:20:34.805Z,96107.98
2019-01-30T08:22:36.459Z,96108.64
2019-01-30T08:24:38.295Z,96111.83
2019-01-30T08:26:39.720Z,96111.23
2019-01-30T08:28:41.525Z,96115.62
2019-01-30T08:30:43.287Z,96123.38
2019-01-30T08:32:44.823Z,96119.08
2019-01-30T08:34:46.341Z,96122.16
2019-01-30T08:36:47.942Z,96118.45
2019-01-30T08:38:49.542Z,96112.23
2019-01-30T08:40:51.142Z,96115.66
2019-01-30T08:42:52.759Z,96109.94
2019-01-30T08:44:54.396Z,96110.86
2019-01-30T08:46:55.989Z,96117.05
2019-01-30T08:48:57.578Z,96118.02
2019-01-30T08:50:59.173Z,96120.41
2019-01-30T08:53:00.785Z,96119.19
2019-01-30T08:55:02.405Z,96119.45
2019-01-30T08:57:04.029Z,96127.11
2019-01-30T08:59:06.008Z,96124.08
2019-01-30T09:01:07.276Z,96127.27
2019-01-30T09:03:14.941Z,96130.43
2019-01-30T09:05:10.530Z,96136.75
2019-01-30T09:07:12.126Z,96124.56
2019-01-30T09:09:13.721Z,96126.51
2019-01-30T09:11:15.313Z,96120.70
2019-01-30T09:13:17.072Z,96123.41
2019-01-30T09:15:18.625Z,96123.57
2019-01-30T09:17:20.218Z,96121.17
2019-01-30T09:19:21.860Z,96126.59
2019-01-30T09:21:23.471Z,96125.12
2019-01-30T09:23:25.061Z,96118.07
2019-01-30T09:25:26.667Z,96119.89
2019-01-30T09:27:28.306Z,96118.67
2019-01-30T09:29:29.916Z,96122.73
2019-01-30T09:31:31.523Z,96119.41
2019-01-30T09:33:33.121Z,96124.28
2019-01-30T09:35:34.723Z,96126.58
2019-01-30T09:37:36.317Z,96127.11
2019-01-30T09:39:37.948Z,96122.55
2019-01-30T09:41:39.576Z,96118.75
2019-01-30T09:43:41.212Z,96118.27
2019-01-30T09:45:42.819Z,96110.49
2019-01-30T09:47:44.437Z,96109.51
2019-01-30T09:49:46.074Z,96112.13
2019-01-30T09:51:47.680Z,96116.38
2019-01-30T09:53:49.401Z,96108.73
2019-01-30T09:55:53.490Z,96108.02
2019-01-30T09:57:55.166Z,96107.70
2019-01-30T09:59:56.799Z,96106.45
2019-01-30T10:01:58.408Z,96104.50
2019-01-30T10:04:00.033Z,96113.79
2019-01-30T10:06:01.625Z,96104.48
2019-01-30T10:08:03.218Z,96104.92
2019-01-30T10:10:04.809Z,96094.51
2019-01-30T10:12:06.429Z,96093.41
2019-01-30T10:14:08.050Z,96092.83
2019-01-30T10:16:09.646Z,96084.88
2019-01-30T10:18:11.262Z,96092.70
2019-01-30T10:20:12.900Z,96086.57
2019-01-30T10:22:14.501Z,96085.47
2019-01-30T10:24:16.122Z,96086.49
2019-01-30T10:26:17.741Z,96081.77
2019-01-30T10:28:19.567Z,96084.93
2019-01-30T10:30:21.194Z,96071.01
2019-01-30T10:32:22.863Z,96078.36
2019-01-30T10:34:25.464Z,96060.37
2019-01-30T10:36:27.061Z,96062.36
2019-01-30T10:38:28.654Z,96076.02
2019-01-30T10:40:30.245Z,96074.48
2019-01-30T10:42:31.847Z,96074.30
2019-01-30T10:44:33.469Z,96077.05
2019-01-30T10:46:35.066Z,96074.21
2019-01-30T10:48:36.719Z,96084.14
2019-01-30T10:50:38.336Z,96075.30
2019-01-30T10:52:39.934Z,96075.59
2019-01-30T10:54:41.553Z,96081.14
2019-01-30T10:56:43.160Z,96086.80
2019-01-30T10:58:44.757Z,96087.75
2019-01-30T11:00:46.374Z,96087.12
2019-01-30T11:02:48.208Z,96091.48
2019-01-30T11:04:49.867Z,96087.02
2019-01-30T11:06:51.467Z,96091.74
2019-01-30T11:08:53.090Z,96062.31
2019-01-30T11:10:54.700Z,96093.63
2019-01-30T11:12:56.284Z,96093.63
2019-01-30T11:14:57.920Z,96086.83
2019-01-30T11:16:59.514Z,96086.73
2019-01-30T11:19:01.106Z,96077.25
2019-01-30T11:21:02.730Z,96078.66
2019-01-30T11:23:04.326Z,96075.30
2019-01-30T11:25:05.946Z,96071.95
2019-01-30T11:27:07.547Z,96065.08
2019-01-30T11:29:09.141Z,96068.20
2019-01-30T11:31:10.724Z,96066.78
2019-01-30T11:33:12.317Z,96065.58
2019-01-30T11:35:13.957Z,96065.00
2019-01-30T11:37:15.564Z,96070.64
2019-01-30T11:39:17.197Z,96064.77
2019-01-30T11:41:18.823Z,96062.63
2019-01-30T11:43:20.431Z,96059.76
2019-01-30T11:45:22.040Z,96057.20
2019-01-30T11:47:23.681Z,96052.58
2019-01-30T11:49:25.291Z,96054.78
2019-01-30T11:51:26.891Z,96046.17
2019-01-30T11:53:28.524Z,96049.44
2019-01-30T11:55:30.127Z,96042.04
2019-01-30T11:57:31.766Z,96047.55
2019-01-30T11:59:33.361Z,96043.08
2019-01-30T12:01:34.943Z,96043.41
2019-01-30T12:03:36.537Z,96044.98
2019-01-30T12:05:38.153Z,96035.89
2019-01-30T12:07:39.764Z,96029.73
2019-01-30T12:09:41.418Z,96025.74
2019-01-30T12:11:43.010Z,96034.81
2019-01-30T12:13:44.612Z,96042.59
2019-01-30T12:15:46.209Z,96038.95
2019-01-30T12:17:47.805Z,96041.64
2019-01-30T12:19:49.398Z,96046.11
2019-01-30T12:21:51.041Z,96040.33
2019-01-30T12:23:52.652Z,96042.15
2019-01-30T12:25:54.239Z,96045.72
2019-01-30T12:27:55.883Z,96047.06
2019-01-30T12:29:57.464Z,96040.48
2019-01-30T12:31:59.074Z,96039.95
2019-01-30T12:34:00.671Z,96050.59
2019-01-30T12:36:02.267Z,96038.09
2019-01-30T12:38:03.905Z,96042.56
2019-01-30T12:40:05.513Z,96039.82
2019-01-30T12:42:07.110Z,96043.33
2019-01-30T12:44:08.706Z,96038.03
2019-01-30T12:46:10.318Z,96037.33
2019-01-30T12:48:11.922Z,96031.93
2019-01-30T12:50:13.534Z,96033.11
2019-01-30T12:52:15.148Z,96028.09
2019-01-30T12:54:16.900Z,96027.38
2019-01-30T12:56:18.488Z,96023.41
2019-01-30T12:58:20.128Z,96026.70
2019-01-30T13:00:21.751Z,96029.09
2019-01-30T13:02:23.338Z,96023.53
2019-01-30T13:04:24.986Z,96007.94
2019-01-30T13:06:26.598Z,96023.91
2019-01-30T13:08:28.213Z,95992.50
2019-01-30T13:10:29.863Z,96022.81
2019-01-30T13:12:31.553Z,96018.70
2019-01-30T13:14:33.127Z,96021.55
2019-01-30T13:16:34.737Z,96016.50
2019-01-30T13:18:36.343Z,96026.85
2019-01-30T13:20:37.990Z,96015.91
2019-01-30T13:22:39.665Z,96011.70
2019-01-30T13:24:41.907Z,96003.58
2019-01-30T13:26:43.553Z,96012.55
2019-01-30T13:28:45.152Z,95998.86
2019-01-30T13:30:46.746Z,95979.21
2019-01-30T13:32:48.401Z,95958.98
2019-01-30T13:34:49.999Z,95952.23
2019-01-30T13:36:51.594Z,95946.77
2019-01-30T13:38:53.176Z,95944.35
2019-01-30T13:40:54.765Z,95949.91
2019-01-30T13:42:56.362Z,95956.70
2019-01-30T13:44:58.008Z,95964.25
2019-01-30T13:46:59.619Z,95966.33
2019-01-30T13:49:01.268Z,95976.44
2019-01-30T13:51:02.879Z,95977.01
2019-01-30T13:53:04.513Z,95985.74
2019-01-30T13:55:06.176Z,96000.80
2019-01-30T13:57:07.875Z,95997.58
2019-01-30T13:59:09.515Z,96002.61
2019-01-30T14:01:17.280Z,95998.38
2019-01-30T14:03:12.782Z,96002.05
2019-01-30T14:05:14.390Z,95998.61
2019-01-30T14:07:15.975Z,96003.03
2019-01-30T14:09:17.615Z,95999.80
2019-01-30T14:11:19.215Z,96000.84
2019-01-30T14:13:20.868Z,96000.33
2019-01-30T14:15:22.499Z,96000.73
2019-01-30T14:17:24.112Z,95997.29
2019-01-30T14:19:25.724Z,96000.33
2019-01-30T14:21:27.321Z,96000.22
2019-01-30T14:23:28.923Z,95992.13
2019-01-30T14:25:30.524Z,95998.08
2019-01-30T14:27:32.201Z,95992.41
2019-01-30T14:29:33.797Z,95996.55
2019-01-30T14:31:35.444Z,95997.47
2019-01-30T14:33:37.061Z,96000.25
2019-01-30T14:35:38.667Z,95994.31
2019-01-30T14:37:40.266Z,95994.64
2019-01-30T14:39:41.981Z,96004.09
2019-01-30T14:41:43.579Z,96005.81
2019-01-30T14:43:45.176Z,96005.53
2019-01-30T14:45:46.816Z,96009.97
2019-01-30T14:47:48.462Z,96012.63
2019-01-30T14:49:50.168Z,96018.23
2019-01-30T14:51:51.848Z,96023.00
2019-01-30T14:53:53.465Z,96021.30
2019-01-30T14:55:55.217Z,96023.92
2019-01-30T14:57:56.779Z,96021.05
2019-01-30T14:59:58.397Z,96023.29
2019-01-30T15:02:00.110Z,96016.08
2019-01-30T15:04:01.856Z,96022.48
2019-01-30T15:06:03.391Z,96014.77
2019-01-30T15:08:05.038Z,96021.22
2019-01-30T15:10:06.645Z,96025.05
2019-01-30T15:12:08.302Z,96021.63
2019-01-30T15:14:09.896Z,96013.42
2019-01-30T15:16:11.530Z,96013.70
2019-01-30T15:18:13.171Z,96012.27
2019-01-30T15:20:14.801Z,96011.90
2019-01-30T15:22:16.477Z,96015.59
2019-01-30T15:24:18.235Z,96010.50
2019-01-30T15:26:19.959Z,96030.09
2019-01-30T15:28:21.593Z,96015.45
2019-01-30T15:30:23.225Z,96013.84
2019-01-30T15:32:24.841Z,96006.66
2019-01-30T15:34:26.456Z,96009.04
2019-01-30T15:36:28.067Z,96001.44
2019-01-30T15:38:29.677Z,96006.07
2019-01-30T15:40:31.606Z,96003.30
2019-01-30T15:42:33.273Z,96006.00
2019-01-30T15:44:34.900Z,95998.78
2019-01-30T15:46:36.547Z,96003.84
2019-01-30T15:48:38.169Z,96004.34
2019-01-30T15:50:39.772Z,96004.30
2019-01-30T15:52:41.428Z,96001.99
2019-01-30T15:54:43.035Z,96003.18
2019-01-30T15:56:44.657Z,95997.54
2019-01-30T15:58:46.290Z,95996.20
2019-01-30T16:00:47.900Z,95996.43
2019-01-30T16:02:49.523Z,95967.59
2019-01-30T16:04:51.125Z,95997.66
2019-01-30T16:06:52.757Z,95990.90
2019-01-30T16:08:54.349Z,95995.54
2019-01-30T16:10:55.991Z,95986.66
2019-01-30T16:12:57.596Z,95991.73
2019-01-30T16:14:59.233Z,95991.07
2019-01-30T16:17:00.830Z,95989.47
2019-01-30T16:19:02.412Z,95986.23
2019-01-30T16:21:04.010Z,95988.37
2019-01-30T16:23:05.624Z,95985.57
2019-01-30T16:25:09.329Z,95985.69
2019-01-30T16:27:08.938Z,95990.28
2019-01-30T16:29:10.548Z,95992.55
2019-01-30T16:31:12.160Z,95988.09
2019-01-30T16:33:13.824Z,95994.35
2019-01-30T16:35:15.421Z,95991.45
2019-01-30T16:37:17.026Z,95986.66
2019-01-30T16:39:18.621Z,95990.00
2019-01-30T16:41:20.219Z,95986.73
2019-01-30T16:43:21.809Z,95995.34
2019-01-30T16:45:23.435Z,95987.83
2019-01-30T16:47:25.031Z,95990.58
2019-01-30T16:49:26.660Z,95990.16
2019-01-30T16:51:28.267Z,95992.09
2019-01-30T16:53:29.857Z,95996.22
2019-01-30T16:55:31.573Z,95989.12
2019-01-30T16:57:33.150Z,96006.97
2019-01-30T16:59:34.745Z,96000.04
2019-01-30T17:01:36.365Z,96006.14
2019-01-30T17:03:37.976Z,96000.75
2019-01-30T17:05:39.590Z,96005.61
2019-01-30T17:07:41.188Z,96009.16
2019-01-30T17:09:42.824Z,96012.58
2019-01-30T17:11:44.436Z,96000.34
2019-01-30T17:13:46.053Z,96005.23
2019-01-30T17:15:47.651Z,96008.14
2019-01-30T17:17:49.243Z,96006.78
2019-01-30T17:19:50.882Z,96001.91
2019-01-30T17:21:52.496Z,96000.09
2019-01-30T17:23:56.910Z,95992.78
2019-01-30T17:25:55.773Z,95999.42
2019-01-30T17:27:57.379Z,96001.15
2019-01-30T17:29:58.981Z,95998.30
2019-01-30T17:32:00.592Z,95995.41
2019-01-30T17:34:02.189Z,95998.06
2019-01-30T17:36:03.790Z,96000.74
2019-01-30T17:38:05.404Z,95995.52
2019-01-30T17:40:07.002Z,95996.84
2019-01-30T17:42:08.642Z,95997.19
2019-01-30T17:44:12.810Z,95997.98
2019-01-30T17:46:11.885Z,96000.59
2019-01-30T17:48:13.520Z,96002.13
2019-01-30T17:50:15.135Z,96002.34
2019-01-30T17:52:16.743Z,96003.17
2019-01-30T17:54:18.379Z,96005.78
2019-01-30T17:56:19.973Z,95996.52
2019-01-30T17:58:21.593Z,96005.97
2019-01-30T18:00:23.203Z,96011.95
2019-01-30T18:02:24.832Z,96010.58
2019-01-30T18:04:26.417Z,96006.81
2019-01-30T18:06:29.974Z,96015.33
2019-01-30T18:08:29.741Z,96018.56
2019-01-30T18:10:31.359Z,96021.70
2019-01-30T18:12:32.976Z,96028.85
2019-01-30T18:14:34.632Z,96018.67
2019-01-30T18:16:36.229Z,96022.11
2019-01-30T18:18:37.827Z,96026.00
2019-01-30T18:20:39.479Z,96023.47
2019-01-30T18:22:41.092Z,96017.37
2019-01-30T18:24:42.694Z,96022.83
2019-01-30T18:26:44.284Z,96026.41
2019-01-30T18:28:47.907Z,96032.66
2019-01-30T18:30:47.517Z,96026.33
2019-01-30T18:32:49.128Z,96029.45
2019-01-30T18:34:50.749Z,96026.64
2019-01-30T18:36:52.346Z,96030.33
2019-01-30T18:38:53.959Z,96035.45
2019-01-30T18:40:55.601Z,96039.33
2019-01-30T18:42:57.193Z,96036.95
2019-01-30T18:44:58.790Z,96045.55
2019-01-30T18:47:00.439Z,96045.31
2019-01-30T18:49:02.037Z,96050.41
2019-01-30T18:51:03.634Z,96049.42
2019-01-30T18:53:05.283Z,96054.74
2019-01-30T18:55:06.893Z,96061.27
2019-01-30T18:57:08.503Z,96063.75
2019-01-30T18:59:10.115Z,96069.89
2019-01-30T19:01:11.719Z,96073.17
2019-01-30T19:03:13.328Z,96073.70
2019-01-30T19:05:14.970Z,96070.50
2019-01-30T19:07:16.565Z,96069.17
2019-01-30T19:09:18.173Z,96066.84
2019-01-30T19:11:19.769Z,96072.56
2019-01-30T19:13:21.380Z,96077.50
2019-01-30T19:15:23.057Z,96075.46
2019-01-30T19:17:24.724Z,96083.25
2019-01-30T19:19:26.322Z,96080.67
2019-01-30T19:21:27.911Z,96084.48
2019-01-30T19:23:29.524Z,96078.86
2019-01-30T19:25:31.110Z,96082.55
2019-01-30T19:27:32.723Z,96088.62
2019-01-30T19:29:34.367Z,96086.39
2019-01-30T19:31:36.557Z,96087.16
2019-01-30T19:33:38.173Z,96088.66
2019-01-30T19:35:39.840Z,96096.55
2019-01-30T19:37:41.451Z,96097.74
2019-01-30T19:39:43.064Z,96088.66
2019-01-30T19:41:44.661Z,96089.21
2019-01-30T19:43:46.279Z,96088.70
2019-01-30T19:45:47.878Z,96089.56
2019-01-30T19:47:49.483Z,96082.29
2019-01-30T19:49:51.144Z,96075.20
2019-01-30T19:51:52.741Z,96066.45
2019-01-30T19:53:54.347Z,96067.52
2019-01-30T19:55:55.960Z,96067.75
2019-01-30T19:57:57.561Z,96028.11
2019-01-30T19:59:59.175Z,96076.91
2019-01-30T20:02:00.829Z,96064.84
2019-01-30T20:04:02.584Z,96066.28
2019-01-30T20:06:04.181Z,96072.60
2019-01-30T20:08:05.847Z,96074.40
2019-01-30T20:10:07.450Z,96069.47
2019-01-30T20:12:09.057Z,96070.45
2019-01-30T20:14:10.643Z,96070.69
2019-01-30T20:16:12.242Z,96072.45
2019-01-30T20:18:13.832Z,96063.18
2019-01-30T20:20:15.489Z,96062.20
2019-01-30T20:22:17.086Z,96059.24
2019-01-30T20:24:18.682Z,96063.00
2019-01-30T20:26:20.281Z,96064.67
2019-01-30T20:28:21.877Z,96070.42
2019-01-30T20:30:23.519Z,96073.07
2019-01-30T20:32:25.117Z,96072.22
2019-01-30T20:34:26.721Z,96080.20
2019-01-30T20:36:28.304Z,96071.28
2019-01-30T20:38:29.888Z,96072.98
2019-01-30T20:40:31.544Z,96072.16
2019-01-30T20:42:33.157Z,96076.34
2019-01-30T20:44:34.768Z,96084.19
2019-01-30T20:46:36.400Z,96080.92
2019-01-30T20:48:45.555Z,96078.97
2019-01-30T20:50:39.659Z,96072.53
2019-01-30T20:52:41.264Z,96083.86
2019-01-30T20:54:42.899Z,96081.61
2019-01-30T20:56:44.498Z,96090.03
2019-01-30T20:58:46.093Z,96084.73
2019-01-30T21:00:47.748Z,96077.13
2019-01-30T21:02:49.359Z,96080.97
2019-01-30T21:04:50.972Z,96073.88
2019-01-30T21:06:52.601Z,96085.83
2019-01-30T21:08:54.197Z,96094.16
2019-01-30T21:10:55.790Z,96094.98
2019-01-30T21:12:57.387Z,96097.25
2019-01-30T21:14:58.990Z,96091.41
2019-01-30T21:17:00.648Z,96096.11
2019-01-30T21:19:02.260Z,96090.49
2019-01-30T21:21:03.874Z,96104.14
2019-01-30T21:23:05.508Z,96104.16
2019-01-30T21:25:07.106Z,96108.41
2019-01-30T21:27:08.766Z,96104.42
2019-01-30T21:29:10.376Z,96104.35
2019-01-30T21:31:11.996Z,96108.69
2019-01-30T21:33:13.598Z,96107.23
2019-01-30T21:35:15.207Z,96101.48
2019-01-30T21:37:16.848Z,96105.27
2019-01-30T21:39:18.451Z,96097.31
2019-01-30T21:41:20.064Z,96094.05
2019-01-30T21:43:21.676Z,96094.34
2019-01-30T21:45:23.316Z,96094.30
2019-01-30T21:47:24.935Z,96095.00
2019-01-30T21:49:26.565Z,96096.24
2019-01-30T21:51:28.165Z,96099.28
2019-01-30T21:53:29.773Z,96108.64
2019-01-30T21:55:31.409Z,96102.50
2019-01-30T21:57:33.007Z,96101.51
2019-01-30T21:59:34.605Z,96097.39
2019-01-30T22:01:36.188Z,96095.83
2019-01-30T22:03:37.786Z,96100.14
2019-01-30T22:05:39.438Z,96110.43
2019-01-30T22:07:41.049Z,96100.31
2019-01-30T22:09:42.636Z,96104.27
2019-01-30T22:11:44.279Z,96104.44
2019-01-30T22:13:45.880Z,96103.73
2019-01-30T22:15:47.487Z,96106.84
2019-01-30T22:17:49.110Z,96103.12
2019-01-30T22:19:50.715Z,96106.13
2019-01-30T22:21:52.319Z,96099.84
2019-01-30T22:24:05.026Z,96095.27
2019-01-30T22:25:55.629Z,96057.62
2019-01-30T22:27:57.975Z,96099.87
2019-01-30T22:29:59.598Z,96097.86
2019-01-30T22:32:01.198Z,96099.59
2019-01-30T22:34:02.904Z,96104.60
2019-01-30T22:36:04.501Z,96109.72
2019-01-30T22:38:12.635Z,96102.98
2019-01-30T22:40:07.802Z,96111.50
2019-01-30T22:42:09.412Z,96106.02
2019-01-30T22:44:11.024Z,96111.63
2019-01-30T22:46:12.621Z,96115.11
2019-01-30T22:48:14.233Z,96114.34
2019-01-30T22:50:15.831Z,96114.41
2019-01-30T22:52:17.441Z,96115.36
2019-01-30T22:54:19.043Z,96117.59
2019-01-30T22:56:20.641Z,96129.14
2019-01-30T22:58:22.332Z,96124.90
2019-01-30T23:00:23.880Z,96124.45
2019-01-30T23:02:25.831Z,96127.90
2019-01-30T23:04:27.476Z,96125.00
2019-01-30T23:06:29.074Z,96129.69
2019-01-30T23:08:30.661Z,96126.72
2019-01-30T23:10:32.254Z,96131.59
2019-01-30T23:12:33.851Z,96129.42
2019-01-30T23:14:35.508Z,96130.38
2019-01-30T23:16:37.106Z,96129.46
2019-01-30T23:18:38.709Z,96128.75
2019-01-30T23:20:40.343Z,96121.36
2019-01-30T23:22:41.942Z,96122.16
2019-01-30T23:24:43.572Z,96119.92
2019-01-30T23:26:45.214Z,96118.40
2019-01-30T23:28:46.814Z,96119.29
2019-01-30T23:30:48.414Z,96118.62
2019-01-30T23:32:50.038Z,96121.62
2019-01-30T23:34:51.643Z,96119.61
2019-01-30T23:36:53.256Z,96117.59
2019-01-30T23:38:54.901Z,96117.95
2019-01-30T23:40:56.499Z,96120.73
2019-01-30T23:42:58.113Z,96117.44
2019-01-30T23:44:59.865Z,96115.78
2019-01-30T23:47:01.453Z,96115.37
2019-01-30T23:49:03.056Z,96107.32